Welcome to Des Moines Iowa Weather. I am an independent private personal weather station on the Northwest Side of Des Moines, Iowa. Just East of Windsor Heights and just West of Glendale . This site is also mobile friendly.

There are no active watches, warnings or advisories


Visit our other weather sites:

Historical Data

Weather Station Setup



Weather Underground History page Text

Daily Summary for February 17, 2018 Units:  Metric    English   Both
« Previous Day
Next Day »
Daily Weekly Monthly Yearly Custom
  High: Low: Average:
Temperature: 4.1 °C -5.7 °C -1.3 °C
Dew Point: 0 °C -11.1 °C -6 °C
Humidity: 90 % 59 % 71 %
Wind Speed: 14.5 km/h 0 km/h 2.3 km/h
Wind Gust: 22.5 km/h - -
Wind:- - West
Pressure: 1022.6 hPa 1014.8 hPa -
Precipitation: 0.76 mm    
Historical Graphs
 
 
Tabular Data for February 17, 2018
Time Temperature Dew Point Pressure Wind Wind Speed Wind Gust Humidity Rainfall Rate (Hourly)
00:23 -5.7 °C -11.1 °C 1021.9 hPa Calm   4.8 km/h 65 % 0 mm
00:38 -5.6 °C -11.1 °C 1021.6 hPa Calm   3.2 km/h 65 % 0 mm
00:53 -5.5 °C -11.1 °C 1021.2 hPa Calm   6.4 km/h 65 % 0 mm
01:08 -5.4 °C -11.1 °C 1021.2 hPa South 1.6 km/h 3.2 km/h 64 % 0 mm
01:23 -5.4 °C -11.1 °C 1020.9 hPa Calm   3.2 km/h 65 % 0 mm
01:39 -5.3 °C -11.1 °C 1020.5 hPa Calm   4.8 km/h 64 % 0 mm
01:54 -5.2 °C -11.1 °C 1020.5 hPa Calm   6.4 km/h 63 % 0 mm
02:09 -5.2 °C -11.1 °C 1020.2 hPa Calm   4.8 km/h 63 % 0 mm
02:24 -5 °C -11.1 °C 1019.5 hPa South 1.6 km/h 6.4 km/h 63 % 0 mm
02:41 -4.8 °C -11.1 °C 1019.5 hPa Calm   6.4 km/h 62 % 0 mm
02:54 -4.7 °C -11.1 °C 1018.8 hPa Calm   6.4 km/h 62 % 0 mm
03:09 -4.6 °C -11.1 °C 1018.5 hPa Calm   8 km/h 61 % 0 mm
03:31 -4.5 °C -11.1 °C 1018.5 hPa South 1.6 km/h 6.4 km/h 61 % 0 mm
03:46 -4.3 °C -11.1 °C 1018.2 hPa Calm   8 km/h 61 % 0 mm
03:54 -4.3 °C -11.1 °C 1017.8 hPa Calm   8 km/h 61 % 0 mm
04:09 -4.3 °C -11.1 °C 1017.5 hPa Calm   4.8 km/h 61 % 0 mm
04:24 -4.2 °C -10.6 °C 1017.8 hPa South 3.2 km/h 6.4 km/h 61 % 0 mm
04:39 -4 °C -10.6 °C 1017.5 hPa South 1.6 km/h 8 km/h 61 % 0 mm
04:54 -3.9 °C -10.6 °C 1017.5 hPa Calm   6.4 km/h 61 % 0 mm
05:09 -3.8 °C -10.6 °C 1017.2 hPa South 6.4 km/h 6.4 km/h 61 % 0 mm
05:24 -3.7 °C -10 °C 1016.8 hPa SSE 1.6 km/h 9.7 km/h 61 % 0 mm
05:39 -3.6 °C -10.6 °C 1016.5 hPa SSE 4.8 km/h 9.7 km/h 60 % 0 mm
05:54 -3.4 °C -10 °C 1015.8 hPa SSE 1.6 km/h 4.8 km/h 60 % 0 mm
06:09 -3.4 °C -10 °C 1015.5 hPa SSE 1.6 km/h 8 km/h 60 % 0 mm
06:24 -3.3 °C -10 °C 1015.1 hPa Calm   8 km/h 60 % 0 mm
06:39 -3.2 °C -10 °C 1014.8 hPa Calm   4.8 km/h 59 % 0 mm
06:54 -3.1 °C -10 °C 1015.1 hPa Calm   3.2 km/h 59 % 0 mm
07:09 -3.1 °C -10 °C 1015.5 hPa Calm     59 % 0 mm
07:24 -3.1 °C -10 °C 1015.5 hPa Calm   1.6 km/h 60 % 0 mm
07:39 -3.1 °C -10 °C 1015.1 hPa Calm   4.8 km/h 60 % 0 mm
07:54 -3 °C -10 °C 1015.5 hPa Calm   1.6 km/h 60 % 0 mm
08:09 -2.8 °C -9.4 °C 1015.1 hPa Calm   4.8 km/h 60 % 0 mm
08:24 -2.7 °C -9.4 °C 1015.5 hPa Calm   1.6 km/h 60 % 0 mm
08:40 -2.5 °C -9.4 °C 1015.5 hPa Calm   3.2 km/h 59 % 0 mm
08:55 -2.4 °C -9.4 °C 1015.1 hPa Calm   1.6 km/h 59 % 0 mm
09:10 -2.3 °C -9.4 °C 1015.1 hPa Calm     59 % 0 mm
09:25 -2.1 °C -9.4 °C 1015.5 hPa Calm   3.2 km/h 59 % 0 mm
09:40 -1.8 °C -8.9 °C 1015.5 hPa Calm     59 % 0 mm
09:55 -1.7 °C -8.3 °C 1015.8 hPa Calm   1.6 km/h 61 % 0 mm
10:10 -1.6 °C -6.1 °C 1015.8 hPa Calm   1.6 km/h 71 % 0 mm
10:25 -1.5 °C -5 °C 1015.5 hPa SSE 3.2 km/h 3.2 km/h 77 % 0 mm
10:40 -1.3 °C -4.4 °C 1015.8 hPa Calm   4.8 km/h 81 % 0 mm
10:55 -0.8 °C -3.3 °C 1016.1 hPa SSE 1.6 km/h 4.8 km/h 82 % 0 mm
11:10 -0.4 °C -2.8 °C 1016.1 hPa South 3.2 km/h 6.4 km/h 84 % 0 mm
11:25 0.1 °C -2.2 °C 1015.8 hPa WNW 3.2 km/h 8 km/h 83 % 0.25 mm
11:40 0.3 °C -2.8 °C 1015.8 hPa NNW 9.7 km/h 9.7 km/h 81 % 0.76 mm
11:55 0.1 °C -2.8 °C 1015.8 hPa WNW 3.2 km/h 16.1 km/h 82 % 0.76 mm
12:10 0.6 °C -2.2 °C 1015.8 hPa NW 6.4 km/h 12.9 km/h 80 % 0.76 mm
12:26 1.3 °C -2.2 °C 1015.8 hPa WNW 4.8 km/h 14.5 km/h 79 % 0.51 mm
12:40 1.2 °C -2.2 °C 1016.1 hPa West 9.7 km/h 17.7 km/h 77 % 0 mm
12:55 1.1 °C -2.8 °C 1016.1 hPa NW 12.9 km/h 20.9 km/h 77 % 0 mm
13:10 1.9 °C -1.7 °C 1016.1 hPa NW 6.4 km/h 12.9 km/h 78 % 0 mm
13:25 2.2 °C -1.7 °C 1016.1 hPa NNW 6.4 km/h 16.1 km/h 75 % 0 mm
13:40 2.3 °C -1.7 °C 1016.5 hPa WNW 4.8 km/h 17.7 km/h 74 % 0 mm
13:55 2.1 °C -1.7 °C 1016.8 hPa NW 12.9 km/h 19.3 km/h 75 % 0 mm
14:10 2.7 °C -1.7 °C 1016.8 hPa WNW 3.2 km/h 22.5 km/h 74 % 0 mm
14:25 3.3 °C -1.1 °C 1017.2 hPa WNW 14.5 km/h 14.5 km/h 72 % 0 mm
14:40 3.1 °C -1.1 °C 1017.5 hPa NW 4.8 km/h 17.7 km/h 74 % 0 mm
14:55 3.1 °C -1.1 °C 1017.8 hPa NW 4.8 km/h 20.9 km/h 75 % 0 mm
15:10 3.5 °C -0.6 °C 1017.5 hPa WNW 6.4 km/h 14.5 km/h 74 % 0 mm
15:25 3.9 °C 0 °C 1017.8 hPa NW 8 km/h 17.7 km/h 75 % 0 mm
15:40 4.1 °C 0 °C 1018.2 hPa NW 3.2 km/h 16.1 km/h 75 % 0 mm
15:56 3.9 °C 0 °C 1018.5 hPa NW 9.7 km/h 20.9 km/h 75 % 0 mm
16:10 3.9 °C 0 °C 1018.8 hPa WNW 4.8 km/h 17.7 km/h 75 % 0 mm
16:26 3.7 °C -1.1 °C 1019.2 hPa NW 6.4 km/h 19.3 km/h 70 % 0 mm
16:41 3.6 °C -1.7 °C 1019.5 hPa WNW 11.3 km/h 20.9 km/h 68 % 0 mm
16:56 3.3 °C -2.2 °C 1019.5 hPa WNW 3.2 km/h 20.9 km/h 68 % 0 mm
17:11 3.2 °C -2.2 °C 1019.9 hPa NW 3.2 km/h 9.7 km/h 69 % 0 mm
17:26 2.9 °C -2.2 °C 1020.2 hPa West 1.6 km/h 9.7 km/h 70 % 0 mm
17:41 2.6 °C -2.2 °C 1020.2 hPa NNW 6.4 km/h 14.5 km/h 71 % 0 mm
17:56 2.3 °C -2.2 °C 1020.2 hPa NW 1.6 km/h 9.7 km/h 72 % 0 mm
18:11 2 °C -2.2 °C 1020.5 hPa WNW 6.4 km/h 12.9 km/h 73 % 0 mm
18:26 1.7 °C -2.2 °C 1020.9 hPa WNW 1.6 km/h 4.8 km/h 75 % 0 mm
18:41 1.3 °C -2.2 °C 1021.2 hPa Calm   3.2 km/h 76 % 0 mm
18:56 1.1 °C -2.8 °C 1021.6 hPa Calm   4.8 km/h 77 % 0 mm
19:11 0.7 °C -2.8 °C 1021.6 hPa Calm   6.4 km/h 78 % 0 mm
19:26 0.5 °C -2.8 °C 1021.6 hPa Calm   3.2 km/h 79 % 0 mm
19:41 0.1 °C -3.3 °C 1021.6 hPa Calm     79 % 0 mm
19:56 -0.3 °C -3.3 °C 1021.9 hPa Calm     80 % 0 mm
20:11 -0.8 °C -3.9 °C 1021.9 hPa Calm     80 % 0 mm
20:26 -1.3 °C -4.4 °C 1021.9 hPa Calm     80 % 0 mm
20:41 -1.9 °C -5 °C 1022.2 hPa Calm     80 % 0 mm
20:56 -2.2 °C -4.4 °C 1022.2 hPa Calm     83 % 0 mm
21:11 -2.4 °C -5 °C 1022.2 hPa Calm     84 % 0 mm
21:26 -2.7 °C -5 °C 1022.6 hPa Calm     85 % 0 mm
21:41 -2.8 °C -5 °C 1022.2 hPa Calm     86 % 0 mm
21:56 -3.1 °C -5 °C 1022.6 hPa Calm     86 % 0 mm
22:11 -3.3 °C -5 °C 1022.2 hPa Calm     87 % 0 mm
22:26 -3.5 °C -5.6 °C 1022.6 hPa Calm     87 % 0 mm
22:41 -3.7 °C -5.6 °C 1022.2 hPa Calm     88 % 0 mm
22:56 -3.7 °C -5 °C 1022.2 hPa NW 3.2 km/h 4.8 km/h 89 % 0 mm
23:11 -3.5 °C -5 °C 1022.2 hPa Calm     89 % 0 mm
23:26 -3.6 °C -5 °C 1021.9 hPa Calm     89 % 0 mm
23:41 -3.8 °C -5 °C 1021.9 hPa Calm     90 % 0 mm
23:56 -3.9 °C -5.6 °C 1021.6 hPa Calm     90 % 0 mm
Des Moines Weather and Climate
Compliments of Weather Underground - 3 mb

Script developed by  Jim McMurry - jmcmurry@mwt.net Adapted for the template by  Wim van der Kuil - Leuven-Template.eu

You find our weather info also at:

Weather Underground

Equipment we use:

Weather-station
Davis VP2 Plus

Weather-program
Davis Weatherlink.Com

Weather-server
iMac (Retina 4K, 21.5-inch, Late 2015)

Provider
Hostmonster.com

Davis VP2 Plus

Davis Weatherlink.Com

iMac (Retina 4K, 21.5-inch, Late 2015)

Hostmonster.com